createdAt,value
2023-02-27T00:00:18.555Z,2.28
2023-02-27T00:02:51.512Z,2.08
2023-02-27T00:05:22.913Z,2.02
2023-02-27T00:07:53.767Z,2.34
2023-02-27T00:10:24.214Z,2.30
2023-02-27T00:12:54.446Z,2.33
2023-02-27T00:15:27.224Z,2.16
2023-02-27T00:17:57.080Z,2.20
2023-02-27T00:20:27.250Z,2.45
2023-02-27T00:22:57.104Z,2.29
2023-02-27T00:25:26.998Z,2.14
2023-02-27T00:27:57.103Z,2.38
2023-02-27T00:30:29.901Z,2.34
2023-02-27T00:33:00.106Z,2.24
2023-02-27T00:35:29.984Z,2.35
2023-02-27T00:37:59.849Z,2.41
2023-02-27T00:40:29.735Z,2.44
2023-02-27T00:43:00.504Z,2.44
2023-02-27T00:45:35.004Z,2.47
2023-02-27T00:48:04.835Z,2.24
2023-02-27T00:50:34.707Z,2.48
2023-02-27T00:53:04.533Z,2.57
2023-02-27T00:55:34.538Z,2.46
2023-02-27T00:58:04.367Z,2.35
2023-02-27T01:00:36.983Z,2.10
2023-02-27T01:03:06.953Z,2.45
2023-02-27T01:05:37.250Z,2.47
2023-02-27T01:08:07.634Z,2.37
2023-02-27T01:10:38.808Z,2.14
2023-02-27T01:13:11.328Z,2.51
2023-02-27T01:15:44.713Z,2.51
2023-02-27T01:18:14.562Z,2.53
2023-02-27T01:20:44.602Z,2.46
2023-02-27T01:23:16.376Z,2.66
2023-02-27T01:25:46.270Z,2.49
2023-02-27T01:28:17.064Z,2.65
2023-02-27T01:30:50.306Z,2.66
2023-02-27T01:33:20.201Z,2.80
2023-02-27T01:35:50.061Z,2.67
2023-02-27T01:38:20.067Z,2.70
2023-02-27T01:40:50.048Z,2.79
2023-02-27T01:43:23.484Z,2.40
2023-02-27T01:45:59.516Z,2.53
2023-02-27T01:48:35.158Z,2.66
2023-02-27T01:51:10.250Z,2.74
2023-02-27T01:53:42.955Z,2.60
2023-02-27T01:56:19.391Z,2.61
2023-02-27T01:58:52.753Z,2.73
2023-02-27T02:01:26.234Z,2.70
2023-02-27T02:04:03.658Z,2.53
2023-02-27T02:06:39.254Z,2.55
2023-02-27T02:09:12.497Z,2.84
2023-02-27T02:11:44.202Z,2.78
2023-02-27T02:14:14.137Z,2.67
2023-02-27T02:17:03.687Z,2.64
2023-02-27T02:20:13.952Z,2.76
2023-02-27T02:23:28.503Z,2.77
2023-02-27T02:26:31.088Z,2.57
2023-02-27T02:29:31.049Z,2.59
2023-02-27T02:32:41.072Z,2.64
2023-02-27T02:36:01.376Z,2.61
2023-02-27T02:39:06.235Z,2.58
2023-02-27T02:41:55.489Z,2.61
2023-02-27T02:44:36.793Z,2.65
2023-02-27T02:47:19.167Z,2.61
2023-02-27T02:50:00.663Z,2.81
2023-02-27T02:52:44.141Z,2.57
2023-02-27T02:55:26.733Z,2.51
2023-02-27T02:58:06.488Z,2.65
2023-02-27T03:00:41.396Z,2.67
2023-02-27T03:03:20.026Z,2.73
2023-02-27T03:05:57.562Z,2.71
2023-02-27T03:08:36.308Z,2.68
2023-02-27T03:11:09.460Z,2.63
2023-02-27T03:13:46.387Z,2.39
2023-02-27T03:16:22.480Z,2.67
2023-02-27T03:18:59.443Z,2.51
2023-02-27T03:21:34.865Z,2.50
2023-02-27T03:24:12.606Z,2.93
2023-02-27T03:26:51.015Z,2.72
2023-02-27T03:29:29.363Z,2.58
2023-02-27T03:32:05.251Z,2.66
2023-02-27T03:34:39.453Z,2.57
2023-02-27T03:37:24.880Z,2.46
2023-02-27T03:40:06.509Z,2.44
2023-02-27T03:42:45.158Z,2.69
2023-02-27T03:45:38.393Z,2.62
2023-02-27T03:48:10.669Z,2.53
2023-02-27T03:50:41.687Z,2.54
2023-02-27T03:53:22.000Z,2.57
2023-02-27T03:55:55.968Z,2.59
2023-02-27T03:58:29.156Z,2.67
2023-02-27T04:00:59.562Z,2.69
2023-02-27T04:03:30.266Z,2.83
2023-02-27T04:06:20.252Z,2.75
2023-02-27T04:08:58.972Z,2.85
2023-02-27T04:11:44.130Z,2.63
2023-02-27T04:14:37.182Z,2.82
2023-02-27T04:17:23.399Z,2.66
2023-02-27T04:20:31.681Z,2.65
2023-02-27T04:23:07.917Z,2.74
2023-02-27T04:26:02.549Z,2.83
2023-02-27T04:28:44.307Z,2.68
2023-02-27T04:31:24.702Z,2.88
2023-02-27T04:34:02.604Z,2.75
2023-02-27T04:36:40.653Z,2.81
2023-02-27T04:39:18.458Z,2.97
2023-02-27T04:41:55.449Z,2.71
2023-02-27T04:44:29.854Z,2.92
2023-02-27T04:47:06.882Z,2.86
2023-02-27T04:49:44.609Z,2.90
2023-02-27T04:52:19.716Z,2.79
2023-02-27T04:54:58.051Z,2.93
2023-02-27T04:57:34.965Z,2.89
2023-02-27T05:00:11.731Z,2.99
2023-02-27T05:02:50.051Z,3.09
2023-02-27T05:05:28.298Z,3.03
2023-02-27T05:08:06.076Z,3.13
2023-02-27T05:10:42.975Z,3.32
2023-02-27T05:13:19.478Z,3.10
2023-02-27T05:15:55.578Z,3.06
2023-02-27T05:18:29.091Z,3.09
2023-02-27T05:21:12.605Z,2.81
2023-02-27T05:23:52.471Z,2.91
2023-02-27T05:26:29.988Z,2.99
2023-02-27T05:29:09.318Z,2.86
2023-02-27T05:31:49.730Z,2.70
2023-02-27T05:34:29.978Z,2.63
2023-02-27T05:37:07.915Z,2.99
2023-02-27T05:39:42.499Z,2.69
2023-02-27T05:42:19.506Z,2.84
2023-02-27T05:44:57.787Z,2.82
2023-02-27T05:47:33.979Z,2.74
2023-02-27T05:50:14.399Z,2.82
2023-02-27T05:52:47.274Z,2.98
2023-02-27T05:55:23.843Z,3.16
2023-02-27T05:58:00.593Z,3.10
2023-02-27T06:00:38.219Z,3.04
2023-02-27T06:03:08.356Z,2.97
2023-02-27T06:05:45.855Z,3.05
2023-02-27T06:08:15.710Z,2.88
2023-02-27T06:10:46.337Z,2.99
2023-02-27T06:13:17.082Z,3.09
2023-02-27T06:15:47.322Z,3.09
2023-02-27T06:18:19.293Z,2.87
2023-02-27T06:20:52.639Z,2.81
2023-02-27T06:23:22.682Z,3.10
2023-02-27T06:25:53.168Z,3.10
2023-02-27T06:28:23.112Z,3.01
2023-02-27T06:30:57.484Z,3.32
2023-02-27T06:33:28.749Z,3.52
2023-02-27T06:36:01.222Z,3.47
2023-02-27T06:38:31.565Z,3.64
2023-02-27T06:41:02.540Z,3.24
2023-02-27T06:43:34.811Z,3.59
2023-02-27T06:46:05.196Z,3.82
2023-02-27T06:48:36.397Z,3.29
2023-02-27T06:51:09.727Z,3.36
2023-02-27T06:53:39.659Z,4.24
2023-02-27T06:56:10.282Z,3.84
2023-02-27T06:58:40.182Z,3.61
2023-02-27T07:01:10.174Z,3.39
2023-02-27T07:03:40.087Z,3.32
2023-02-27T07:06:13.977Z,3.42
2023-02-27T07:09:01.861Z,3.46
2023-02-27T07:11:33.703Z,3.52
2023-02-27T07:14:03.676Z,3.67
2023-02-27T07:16:33.574Z,3.59
2023-02-27T07:19:03.470Z,3.53
2023-02-27T07:21:35.889Z,3.67
2023-02-27T07:24:06.332Z,3.51
2023-02-27T07:26:36.184Z,4.72
2023-02-27T07:29:06.361Z,4.59
2023-02-27T07:31:36.968Z,4.16
2023-02-27T07:34:06.952Z,3.90
2023-02-27T07:36:39.424Z,3.74
2023-02-27T07:39:10.706Z,3.76
2023-02-27T07:41:40.562Z,3.91
2023-02-27T07:44:10.438Z,3.70
2023-02-27T07:46:40.700Z,3.93
2023-02-27T07:49:10.540Z,3.70
2023-02-27T07:51:43.910Z,3.79
2023-02-27T07:54:13.916Z,4.07
2023-02-27T07:56:43.831Z,4.12
2023-02-27T07:59:14.005Z,3.78
2023-02-27T08:01:48.510Z,3.96
2023-02-27T08:04:24.681Z,4.17
2023-02-27T08:07:00.735Z,3.98
2023-02-27T08:09:30.886Z,4.34
2023-02-27T08:12:03.035Z,4.07
2023-02-27T08:14:33.041Z,4.01
2023-02-27T08:17:03.181Z,4.18
2023-02-27T08:19:33.086Z,3.97
2023-02-27T08:22:05.557Z,4.03
2023-02-27T08:24:35.498Z,3.97
2023-02-27T08:27:05.401Z,4.39
2023-02-27T08:29:35.639Z,4.17
2023-02-27T08:32:05.908Z,3.97
2023-02-27T08:34:35.870Z,4.12
2023-02-27T08:37:08.318Z,3.73
2023-02-27T08:39:38.188Z,4.86
2023-02-27T08:42:08.133Z,4.49
2023-02-27T08:44:38.122Z,4.12
2023-02-27T08:47:08.110Z,4.49
2023-02-27T08:49:38.072Z,4.12
2023-02-27T08:52:10.525Z,4.32
2023-02-27T08:54:40.480Z,4.31
2023-02-27T08:57:10.519Z,4.22
2023-02-27T08:59:40.541Z,4.34
2023-02-27T09:02:10.505Z,4.08
2023-02-27T09:04:40.403Z,4.05
2023-02-27T09:07:13.385Z,3.94
2023-02-27T09:09:43.212Z,3.86
2023-02-27T09:12:13.156Z,3.77
2023-02-27T09:14:42.990Z,3.32
2023-02-27T09:17:12.868Z,3.26
2023-02-27T09:19:42.673Z,3.49
2023-02-27T09:22:15.189Z,5.75
2023-02-27T09:24:45.033Z,3.61
2023-02-27T09:27:15.247Z,3.58
2023-02-27T09:29:45.370Z,3.31
2023-02-27T09:32:15.314Z,3.24
2023-02-27T09:34:45.242Z,3.21
2023-02-27T09:37:19.263Z,3.30
2023-02-27T09:39:49.314Z,3.09
2023-02-27T09:42:22.622Z,4.42
2023-02-27T09:44:55.204Z,3.58
2023-02-27T09:47:31.097Z,3.19
2023-02-27T09:50:04.487Z,3.22
2023-02-27T09:52:40.266Z,3.70
2023-02-27T09:55:20.287Z,3.10
2023-02-27T09:57:57.888Z,2.89
2023-02-27T10:00:47.471Z,2.97
2023-02-27T10:03:38.157Z,3.05
2023-02-27T10:06:29.018Z,3.35
2023-02-27T10:09:15.245Z,2.72
2023-02-27T10:12:00.161Z,3.00
2023-02-27T10:14:42.295Z,3.27
2023-02-27T10:17:20.797Z,2.75
2023-02-27T10:19:53.800Z,2.75
2023-02-27T10:22:32.581Z,3.32
2023-02-27T10:25:24.780Z,2.91
2023-02-27T10:28:11.607Z,2.97
2023-02-27T10:30:42.020Z,2.94
2023-02-27T10:33:18.291Z,2.88
2023-02-27T10:35:50.836Z,2.61
2023-02-27T10:38:32.030Z,2.84
2023-02-27T10:41:06.743Z,3.11
2023-02-27T10:43:37.799Z,2.62
2023-02-27T10:46:16.880Z,2.68
2023-02-27T10:48:47.470Z,2.87
2023-02-27T10:51:30.394Z,3.13
2023-02-27T10:54:24.538Z,2.62
2023-02-27T10:57:00.154Z,3.03
2023-02-27T10:59:34.441Z,2.71
2023-02-27T11:02:07.516Z,3.30
2023-02-27T11:04:42.325Z,2.86
2023-02-27T11:07:16.856Z,3.15
2023-02-27T11:10:02.865Z,2.79
2023-02-27T11:12:37.296Z,2.78
2023-02-27T11:15:26.323Z,2.88
2023-02-27T11:17:58.733Z,2.88
2023-02-27T11:20:40.628Z,2.96
2023-02-27T11:23:18.977Z,3.00
2023-02-27T11:25:49.749Z,2.66
2023-02-27T11:28:29.954Z,3.07
2023-02-27T11:31:04.329Z,2.82
2023-02-27T11:33:41.853Z,3.32
2023-02-27T11:36:12.572Z,2.87
2023-02-27T11:38:42.457Z,2.84
2023-02-27T11:41:12.726Z,2.49
2023-02-27T11:43:53.903Z,2.19
2023-02-27T11:46:47.417Z,2.44
2023-02-27T11:49:32.783Z,2.60
2023-02-27T11:52:12.687Z,2.48
2023-02-27T11:54:48.523Z,2.73
2023-02-27T11:57:27.851Z,2.53
2023-02-27T12:00:06.636Z,2.58
2023-02-27T12:02:55.275Z,2.51
2023-02-27T12:05:32.255Z,2.44
2023-02-27T12:08:16.442Z,2.36
2023-02-27T12:11:13.159Z,2.62
2023-02-27T12:14:07.075Z,2.54
2023-02-27T12:16:45.953Z,2.55
2023-02-27T12:19:24.253Z,2.63
2023-02-27T12:22:00.974Z,2.45
2023-02-27T12:24:40.931Z,2.52
2023-02-27T12:27:21.984Z,2.89
2023-02-27T12:29:58.845Z,2.31
2023-02-27T12:32:41.658Z,2.62
2023-02-27T12:35:20.707Z,2.30
2023-02-27T12:37:51.194Z,2.51
2023-02-27T12:40:23.297Z,2.47
2023-02-27T12:43:15.748Z,2.39
2023-02-27T12:46:05.184Z,2.48
2023-02-27T12:49:01.348Z,2.35
2023-02-27T12:51:43.270Z,2.52
2023-02-27T12:54:26.746Z,2.20
2023-02-27T12:57:15.502Z,2.12
2023-02-27T13:00:09.688Z,2.30
2023-02-27T13:02:52.701Z,2.40
2023-02-27T13:05:44.417Z,2.74
2023-02-27T13:08:48.439Z,2.77
2023-02-27T13:11:27.989Z,2.44
2023-02-27T13:14:02.985Z,2.43
2023-02-27T13:16:39.135Z,2.20
2023-02-27T13:19:18.205Z,2.57
2023-02-27T13:21:57.925Z,2.61
2023-02-27T13:24:30.371Z,2.13
2023-02-27T13:27:06.479Z,2.09
2023-02-27T13:29:41.178Z,2.18
2023-02-27T13:32:41.703Z,2.27
2023-02-27T13:35:31.995Z,2.50
2023-02-27T13:38:07.119Z,2.95
2023-02-27T13:40:40.908Z,2.67
2023-02-27T13:43:31.244Z,2.89
2023-02-27T13:46:02.554Z,2.71
2023-02-27T13:48:52.582Z,3.13
2023-02-27T13:51:46.943Z,2.59
2023-02-27T13:54:30.850Z,2.38
2023-02-27T13:57:21.796Z,2.59
2023-02-27T14:00:05.115Z,2.46
2023-02-27T14:03:00.002Z,2.41
2023-02-27T14:05:38.155Z,2.56
2023-02-27T14:08:16.600Z,2.36
2023-02-27T14:11:01.191Z,2.40
2023-02-27T14:14:00.731Z,2.67
2023-02-27T14:16:56.024Z,2.76
2023-02-27T14:20:05.422Z,2.73
2023-02-27T14:22:52.123Z,2.46
2023-02-27T14:25:29.083Z,2.67
2023-02-27T14:28:05.066Z,2.40
2023-02-27T14:30:43.430Z,2.24
2023-02-27T14:33:37.432Z,2.47
2023-02-27T14:36:16.837Z,2.47
2023-02-27T14:38:46.924Z,2.57
2023-02-27T14:41:28.871Z,2.39
2023-02-27T14:44:02.320Z,2.45
2023-02-27T14:46:35.724Z,2.59
2023-02-27T14:49:09.567Z,2.32
2023-02-27T14:51:40.973Z,2.35
2023-02-27T14:54:17.964Z,2.54
2023-02-27T14:56:57.101Z,2.31
2023-02-27T14:59:33.970Z,2.54
2023-02-27T15:02:06.552Z,2.50
2023-02-27T15:04:37.402Z,2.45
2023-02-27T15:07:07.541Z,2.63
2023-02-27T15:09:43.454Z,2.59
2023-02-27T15:12:21.328Z,2.70
2023-02-27T15:14:57.695Z,2.73
2023-02-27T15:17:30.057Z,2.57
2023-02-27T15:20:01.687Z,3.07
2023-02-27T15:22:39.804Z,2.86
2023-02-27T15:25:29.918Z,2.61
2023-02-27T15:28:04.174Z,2.64
2023-02-27T15:30:37.270Z,2.65
2023-02-27T15:33:07.488Z,2.34
2023-02-27T15:35:40.784Z,2.78
2023-02-27T15:38:27.150Z,2.67
2023-02-27T15:40:58.557Z,2.43
2023-02-27T15:43:31.182Z,2.67
2023-02-27T15:46:04.018Z,2.73
2023-02-27T15:48:35.533Z,2.53
2023-02-27T15:51:07.155Z,2.69
2023-02-27T15:53:40.428Z,2.58
2023-02-27T15:56:16.973Z,2.54
2023-02-27T15:58:54.415Z,2.64
2023-02-27T16:01:30.734Z,2.44
2023-02-27T16:04:04.930Z,2.63
2023-02-27T16:06:38.209Z,2.56
2023-02-27T16:09:22.012Z,2.89
2023-02-27T16:11:52.290Z,2.86
2023-02-27T16:14:41.432Z,2.61
2023-02-27T16:17:31.061Z,2.65
2023-02-27T16:20:04.996Z,3.17
2023-02-27T16:22:36.383Z,2.95
2023-02-27T16:25:21.211Z,2.66
2023-02-27T16:27:54.093Z,2.80
2023-02-27T16:30:25.575Z,2.86
2023-02-27T16:33:04.418Z,2.83
2023-02-27T16:35:35.481Z,2.84
2023-02-27T16:38:05.502Z,3.39
2023-02-27T16:40:35.446Z,3.02
2023-02-27T16:43:05.431Z,2.76
2023-02-27T16:45:35.384Z,2.79
2023-02-27T16:48:08.345Z,2.77
2023-02-27T16:50:45.060Z,2.75
2023-02-27T16:53:14.981Z,2.62
2023-02-27T16:55:44.978Z,2.59
2023-02-27T16:58:18.974Z,2.77
2023-02-27T17:00:49.322Z,2.68
2023-02-27T17:03:21.902Z,2.55
2023-02-27T17:05:52.115Z,2.89
2023-02-27T17:08:22.457Z,2.74
2023-02-27T17:10:53.499Z,3.12
2023-02-27T17:13:23.422Z,3.12
2023-02-27T17:15:53.366Z,2.79
2023-02-27T17:18:26.310Z,2.63
2023-02-27T17:20:57.307Z,2.69
2023-02-27T17:23:27.270Z,3.03
2023-02-27T17:25:57.719Z,3.72
2023-02-27T17:28:28.588Z,3.27
2023-02-27T17:30:58.615Z,3.14
2023-02-27T17:33:33.266Z,3.08
2023-02-27T17:36:07.818Z,3.13
2023-02-27T17:38:38.161Z,3.01
2023-02-27T17:41:10.032Z,3.01
2023-02-27T17:43:40.402Z,2.99
2023-02-27T17:46:11.387Z,2.74
2023-02-27T17:48:43.897Z,2.90
2023-02-27T17:51:16.812Z,2.89
2023-02-27T17:53:46.809Z,2.63
2023-02-27T17:56:17.178Z,2.87
2023-02-27T17:58:47.544Z,2.87
2023-02-27T18:01:21.571Z,2.87
2023-02-27T18:03:54.926Z,2.64
2023-02-27T18:06:25.363Z,2.93
2023-02-27T18:08:55.321Z,3.05
2023-02-27T18:11:25.614Z,3.47
2023-02-27T18:13:55.513Z,3.41
2023-02-27T18:16:25.917Z,2.99
2023-02-27T18:18:58.624Z,2.81
2023-02-27T18:21:28.555Z,3.25
2023-02-27T18:23:58.577Z,2.96
2023-02-27T18:26:31.493Z,2.82
2023-02-27T18:29:02.130Z,3.11
2023-02-27T18:31:34.904Z,3.13
2023-02-27T18:34:08.221Z,3.39
2023-02-27T18:36:39.356Z,3.14
2023-02-27T18:39:10.445Z,3.55
2023-02-27T18:41:40.893Z,3.44
2023-02-27T18:44:11.838Z,3.40
2023-02-27T18:46:41.879Z,3.53
2023-02-27T18:49:15.825Z,3.26
2023-02-27T18:51:45.937Z,3.67
2023-02-27T18:54:16.859Z,3.21
2023-02-27T18:56:48.601Z,3.95
2023-02-27T18:59:18.430Z,4.11
2023-02-27T19:01:48.246Z,3.91
2023-02-27T19:04:20.738Z,4.04
2023-02-27T19:06:50.697Z,3.78
2023-02-27T19:09:22.127Z,3.92
2023-02-27T19:11:52.150Z,4.15
2023-02-27T19:14:22.083Z,4.52
2023-02-27T19:16:52.063Z,4.52
2023-02-27T19:19:28.185Z,4.12
2023-02-27T19:21:58.439Z,4.34
2023-02-27T19:24:28.357Z,4.14
2023-02-27T19:26:58.220Z,4.12
2023-02-27T19:29:28.103Z,4.34
2023-02-27T19:31:58.814Z,4.29
2023-02-27T19:34:31.347Z,4.24
2023-02-27T19:37:01.244Z,4.33
2023-02-27T19:39:31.144Z,4.22
2023-02-27T19:42:01.064Z,3.77
2023-02-27T19:44:30.960Z,3.82
2023-02-27T19:47:01.032Z,3.55
2023-02-27T19:49:33.653Z,3.65
2023-02-27T19:52:03.485Z,3.47
2023-02-27T19:54:33.442Z,3.69
2023-02-27T19:57:03.748Z,3.78
2023-02-27T19:59:33.683Z,3.59
2023-02-27T20:02:03.839Z,3.53
2023-02-27T20:04:37.196Z,3.64
2023-02-27T20:07:07.231Z,3.41
2023-02-27T20:09:37.220Z,3.40
2023-02-27T20:12:07.774Z,3.31
2023-02-27T20:14:38.181Z,3.49
2023-02-27T20:17:08.113Z,3.59
2023-02-27T20:19:41.547Z,3.55
2023-02-27T20:22:13.524Z,3.77
2023-02-27T20:24:44.762Z,3.59
2023-02-27T20:27:15.710Z,3.74
2023-02-27T20:29:46.045Z,4.20
2023-02-27T20:32:16.153Z,3.83
2023-02-27T20:34:49.125Z,4.01
2023-02-27T20:37:19.403Z,4.05
2023-02-27T20:39:51.171Z,4.27
2023-02-27T20:42:21.239Z,5.10
2023-02-27T20:44:53.222Z,4.72
2023-02-27T20:47:23.459Z,4.64
2023-02-27T20:49:56.061Z,4.30
2023-02-27T20:52:26.004Z,4.01
2023-02-27T20:54:56.028Z,4.24
2023-02-27T20:57:26.027Z,4.14
2023-02-27T20:59:55.991Z,4.28
2023-02-27T21:02:26.005Z,4.37
2023-02-27T21:04:58.686Z,4.23
2023-02-27T21:07:28.836Z,5.86
2023-02-27T21:09:58.694Z,6.48
2023-02-27T21:12:28.575Z,4.80
2023-02-27T21:14:58.661Z,4.38
2023-02-27T21:17:28.879Z,4.56
2023-02-27T21:20:06.623Z,4.61
2023-02-27T21:22:38.426Z,4.51
2023-02-27T21:25:09.333Z,4.69
2023-02-27T21:27:39.244Z,4.86
2023-02-27T21:30:11.130Z,4.78
2023-02-27T21:32:41.158Z,4.74
2023-02-27T21:35:24.416Z,4.79
2023-02-27T21:37:56.798Z,4.80
2023-02-27T21:40:26.658Z,4.99
2023-02-27T21:42:56.518Z,5.03
2023-02-27T21:45:26.458Z,4.71
2023-02-27T21:47:56.688Z,4.81
2023-02-27T21:50:33.982Z,5.09
2023-02-27T21:53:03.910Z,4.82
2023-02-27T21:55:33.758Z,4.82
2023-02-27T21:58:06.061Z,5.04
2023-02-27T22:00:37.461Z,5.02
2023-02-27T22:03:07.358Z,5.01
2023-02-27T22:05:43.192Z,4.61
2023-02-27T22:08:13.524Z,4.48
2023-02-27T22:10:48.549Z,4.77
2023-02-27T22:13:18.676Z,4.76
2023-02-27T22:15:48.549Z,4.85
2023-02-27T22:18:18.436Z,4.73
2023-02-27T22:20:51.327Z,4.66
2023-02-27T22:23:21.262Z,4.88
2023-02-27T22:26:01.592Z,4.88
2023-02-27T22:28:32.774Z,5.04
2023-02-27T22:31:10.895Z,4.97
2023-02-27T22:33:42.417Z,5.24
2023-02-27T22:36:17.364Z,5.25
2023-02-27T22:38:47.270Z,5.13
2023-02-27T22:41:19.415Z,5.30
2023-02-27T22:43:49.544Z,5.47
2023-02-27T22:46:26.029Z,5.43
2023-02-27T22:48:59.539Z,5.27
2023-02-27T22:51:33.396Z,5.42
2023-02-27T22:54:06.790Z,5.00
2023-02-27T22:56:37.123Z,5.06
2023-02-27T22:59:08.292Z,5.61
2023-02-27T23:01:40.151Z,5.73
2023-02-27T23:04:11.926Z,5.51
2023-02-27T23:06:44.393Z,5.60
2023-02-27T23:09:17.233Z,5.48
2023-02-27T23:11:48.160Z,6.66
2023-02-27T23:14:18.514Z,7.79
2023-02-27T23:16:48.476Z,7.38
2023-02-27T23:19:20.839Z,6.58
2023-02-27T23:21:53.269Z,6.54
2023-02-27T23:24:23.258Z,6.41
2023-02-27T23:26:54.847Z,6.35
2023-02-27T23:29:24.699Z,5.96
2023-02-27T23:31:54.772Z,6.24
2023-02-27T23:34:24.878Z,6.40
2023-02-27T23:36:57.293Z,6.34
2023-02-27T23:39:27.199Z,6.22
2023-02-27T23:41:57.026Z,6.17
2023-02-27T23:44:29.060Z,6.33
2023-02-27T23:46:58.874Z,6.29
2023-02-27T23:49:28.743Z,6.59
2023-02-27T23:52:01.178Z,6.51
2023-02-27T23:54:31.002Z,6.50
2023-02-27T23:57:00.858Z,6.81
2023-02-27T23:59:31.414Z,6.51
